Meyersville, Texas
Current Conditions -  °F | °C
As of 8:51 PM on Sunday 23 Nov 2014 (Local Time) from KVCT Reporting Station
Clear Clear  
Wind Chill: 64°   Ceiling: Unl
Heat Index: 64°   Visibility: 10mi
Dew Point: 59°   Wind: 8mph
Humidity: 84%   Direction: 190°S
Pressure: 29.68"   Gusts: NA
Location:  28.93°N, 97.31°W
Report Text: KVCT 240251Z 19007KT 10SM CLR 18/15 A2968 RMK AO2 SLP049 T01780150 51026
Loading
Personal Weather Stations






























Interactive Weather Map New forecast layout! Learn more

10-Day Weather Forecast

Advertisements
Track Severe Weather on mobile